РПИ Ташкент

Руководитель РПИ

Evgeny Vygornitsky*

Инструкторы РПИ
Evgeny Vygornitsky (Supervisor)
Vitaliy Alekseyev (Instructor)
Входит в состав
ЗЦ Центральная Азия

Диспетчеры РПИ

Диспетчер Рейтинг Допуски *
Vitaliy Alekseyev Instructor UTTR_CTR
Arman Maxatov Student 2 UTTT_TWR
Timur Gilmanov Student UTTT_GND

Аэропорты РПИ

ICAO Город Название Погода
UTTT Ташкент Ташкент UTTT 020230Z 13006KT 080V160 CAVOK 26/07 Q1008 R08R/CLRD70 NOSIG
UTNU Ургенч Ургенч UTNU 020230Z 04010KT CAVOK 24/05 Q1007 R31/CLRD70 NOSIG
UTKA Андижан Андижан
UTFN Наманган Наманган UTFN 020230Z 07006KT 9999 NSC 26/08 Q1006 R28/CLRD70 NOSIG
UTNN Нукус Нукус UTNN 020230Z 03008KT CAVOK 25/M01 Q1008 R33/CLRD60 NOSIG
UTFF Фергана Фергана UTFF 020230Z VRB02KT 9999 NSC 29/06 Q1007 R18/CLRD70